createdAt,value
2023-02-20T00:01:22.982Z,3.28
2023-02-20T00:03:53.042Z,3.8
2023-02-20T00:06:23.045Z,3.1
2023-02-20T00:08:53.047Z,3.85
2023-02-20T00:11:23.076Z,4.28
2023-02-20T00:13:53.091Z,3.61
2023-02-20T00:16:23.133Z,3.12
2023-02-20T00:18:53.128Z,2.48
2023-02-20T00:21:23.151Z,3.25
2023-02-20T00:23:53.189Z,3.25
2023-02-20T00:26:23.206Z,3.53
2023-02-20T00:28:53.227Z,3.44
2023-02-20T00:31:23.312Z,3.9
2023-02-20T00:33:53.299Z,3.51
2023-02-20T00:36:23.306Z,3.86
2023-02-20T00:38:53.315Z,3.75
2023-02-20T00:41:23.389Z,3.82
2023-02-20T00:43:53.368Z,3.35
2023-02-20T00:46:23.420Z,4.67
2023-02-20T00:48:53.431Z,4.46
2023-02-20T00:51:23.469Z,4.64
2023-02-20T00:56:23.516Z,4.19
2023-02-20T00:58:53.694Z,4.9
2023-02-20T01:01:23.554Z,5.24
2023-02-20T01:03:53.605Z,5.01
2023-02-20T01:06:23.577Z,5.07
2023-02-20T01:08:53.607Z,4.22
2023-02-20T01:11:23.645Z,5.82
2023-02-20T01:13:53.691Z,5.82
2023-02-20T01:16:23.744Z,6.03
2023-02-20T01:18:53.713Z,5.33
2023-02-20T01:23:53.749Z,5.47
2023-02-20T01:26:23.789Z,5.77
2023-02-20T01:28:53.808Z,4.94
2023-02-20T01:31:23.901Z,4.03
2023-02-20T01:33:53.863Z,5.38
2023-02-20T01:36:23.868Z,6.38
2023-02-20T01:38:53.913Z,6.9
2023-02-20T01:41:23.932Z,7.16
2023-02-20T01:46:24.028Z,7.04
2023-02-20T01:48:53.999Z,7.02
2023-02-20T01:51:24.008Z,6.3
2023-02-20T01:56:24.071Z,8.05
2023-02-20T01:58:54.085Z,6.83
2023-02-20T02:01:24.126Z,6.16
2023-02-20T02:03:54.138Z,7.14
2023-02-20T02:08:54.188Z,6.99
2023-02-20T02:11:24.247Z,6.25
2023-02-20T02:13:54.243Z,6.29
2023-02-20T02:16:24.404Z,6.42
2023-02-20T02:26:24.352Z,6.67
2023-02-20T02:28:54.378Z,6.71
2023-02-20T02:31:24.483Z,6.8
2023-02-20T02:33:54.409Z,7.26
2023-02-20T02:36:24.450Z,8.53
2023-02-20T02:38:54.453Z,8.05
2023-02-20T02:41:24.504Z,7.01
2023-02-20T02:43:54.523Z,6.79
2023-02-20T02:46:24.546Z,6.56
2023-02-20T02:48:54.553Z,7.07
2023-02-20T02:51:24.580Z,7.08
2023-02-20T02:53:54.598Z,7.1
2023-02-20T02:56:24.642Z,8.38
2023-02-20T02:58:54.663Z,8.02
2023-02-20T03:01:24.679Z,6.46
2023-02-20T03:03:54.696Z,7.52
2023-02-20T03:06:24.764Z,8.57
2023-02-20T03:08:54.760Z,9.15
2023-02-20T03:11:24.765Z,10.19
2023-02-20T03:16:24.876Z,8.84
2023-02-20T03:18:54.844Z,8.31
2023-02-20T03:21:24.861Z,9.72
2023-02-20T03:23:54.900Z,10.1
2023-02-20T03:26:24.934Z,10.32
2023-02-20T03:28:54.936Z,10.23
2023-02-20T03:31:25.058Z,10.35
2023-02-20T03:33:54.985Z,11.25
2023-02-20T03:36:25.004Z,12.62
2023-02-20T03:38:55.020Z,12.1
2023-02-20T03:41:25.064Z,13.23
2023-02-20T03:43:55.091Z,13.13
2023-02-20T03:46:25.108Z,11.28
2023-02-20T03:48:55.124Z,9.9
2023-02-20T03:51:25.166Z,10.71
2023-02-20T03:53:55.178Z,10.67
2023-02-20T03:56:25.213Z,10.67
2023-02-20T03:58:55.218Z,10.09
2023-02-20T04:01:25.305Z,9.49
2023-02-20T04:03:55.269Z,11.24
2023-02-20T04:06:25.284Z,9.66
2023-02-20T04:08:55.313Z,10.94
2023-02-20T04:11:25.351Z,11.21
2023-02-20T04:13:55.352Z,11.06
2023-02-20T04:16:25.432Z,10.1
2023-02-20T04:18:55.404Z,8.78
2023-02-20T04:21:25.447Z,7.66
2023-02-20T04:23:55.454Z,11.1
2023-02-20T04:28:55.514Z,9.43
2023-02-20T04:31:25.537Z,8.13
2023-02-20T04:33:55.553Z,8.71
2023-02-20T04:36:25.598Z,10.24
2023-02-20T04:38:55.582Z,11.43
2023-02-20T04:41:25.624Z,10.36
2023-02-20T04:43:55.655Z,11.39
2023-02-20T04:46:25.686Z,9.16
2023-02-20T04:48:55.672Z,9.54
2023-02-20T04:51:25.714Z,10.49
2023-02-20T04:53:55.726Z,9.29
2023-02-20T04:56:25.761Z,9.78
2023-02-20T04:58:55.773Z,9.68
2023-02-20T05:01:25.813Z,10.76
2023-02-20T05:03:55.821Z,9.72
2023-02-20T05:06:25.838Z,8.9
2023-02-20T05:08:55.878Z,9.95
2023-02-20T05:11:25.899Z,9.95
2023-02-20T05:13:55.915Z,8.99
2023-02-20T05:16:25.949Z,8.87
2023-02-20T05:18:55.972Z,10.24
2023-02-20T05:21:25.988Z,10
2023-02-20T05:23:56.005Z,11.2
2023-02-20T05:26:26.044Z,11.78
2023-02-20T05:28:56.069Z,12.34
2023-02-20T05:31:26.214Z,11.18
2023-02-20T05:33:56.099Z,12
2023-02-20T05:36:26.124Z,10.52
2023-02-20T05:38:56.165Z,12.61
2023-02-20T05:41:26.174Z,11.85
2023-02-20T05:46:26.217Z,9.4
2023-02-20T05:48:56.241Z,9.94
2023-02-20T05:51:26.268Z,12.11
2023-02-20T05:56:26.334Z,9.57
2023-02-20T05:58:56.346Z,9.77
2023-02-20T06:01:26.381Z,10.88
2023-02-20T06:03:56.462Z,9.13
2023-02-20T06:06:26.407Z,9.49
2023-02-20T06:08:56.443Z,9.63
2023-02-20T06:13:56.477Z,7.49
2023-02-20T06:18:56.540Z,7.47
2023-02-20T06:21:26.579Z,9.43
2023-02-20T06:23:56.593Z,8.85
2023-02-20T06:26:26.606Z,7.31
2023-02-20T06:28:56.623Z,8.98
2023-02-20T06:31:26.792Z,9.9
2023-02-20T06:33:56.688Z,9.61
2023-02-20T06:36:26.701Z,9.2
2023-02-20T06:38:58.230Z,9.14
2023-02-20T06:41:26.806Z,9.43
2023-02-20T06:43:56.758Z,10.66
2023-02-20T06:46:26.937Z,8.35
2023-02-20T06:48:56.809Z,9.77
2023-02-20T06:51:26.834Z,8.76
2023-02-20T06:53:56.871Z,8.13
2023-02-20T06:56:26.914Z,8.69
2023-02-20T06:58:56.912Z,7.44
2023-02-20T07:01:26.952Z,8.53
2023-02-20T07:03:56.949Z,9.07
2023-02-20T07:06:26.997Z,7.37
2023-02-20T07:08:57.031Z,7.21
2023-02-20T07:11:27.033Z,7.88
2023-02-20T07:13:57.057Z,7.44
2023-02-20T07:16:27.078Z,7.03
2023-02-20T07:18:57.094Z,7.24
2023-02-20T07:21:27.134Z,7.39
2023-02-20T07:23:57.173Z,6.61
2023-02-20T07:26:27.178Z,7.25
2023-02-20T07:28:57.179Z,8.38
2023-02-20T07:31:27.414Z,8.01
2023-02-20T07:33:57.233Z,8.09
2023-02-20T07:36:27.266Z,8.07
2023-02-20T07:38:57.290Z,7.63
2023-02-20T07:41:27.313Z,7.18
2023-02-20T07:43:57.327Z,6.96
2023-02-20T07:46:27.363Z,6.02
2023-02-20T07:51:27.401Z,5.29
2023-02-20T07:53:57.437Z,4.64
2023-02-20T07:56:27.462Z,5.51
2023-02-20T07:58:59.313Z,5.93
2023-02-20T08:01:27.553Z,5.49
2023-02-20T08:06:27.545Z,4.93
2023-02-20T08:08:57.575Z,5.23
2023-02-20T08:11:27.634Z,6.18
2023-02-20T08:13:57.620Z,6
2023-02-20T08:16:27.755Z,6.18
2023-02-20T08:18:57.701Z,7.47
2023-02-20T08:21:27.700Z,5.92
2023-02-20T08:23:57.720Z,6.34
2023-02-20T08:26:27.734Z,5.45
2023-02-20T08:28:57.745Z,5.45
2023-02-20T08:31:32.709Z,5.81
2023-02-20T08:36:27.826Z,6.08
2023-02-20T08:38:57.852Z,6.46
2023-02-20T08:43:57.894Z,5.08
2023-02-20T08:46:27.929Z,5.9
2023-02-20T08:48:57.938Z,6.36
2023-02-20T08:51:27.955Z,5.94
2023-02-20T08:53:57.996Z,4.69
2023-02-20T08:56:28.025Z,4.43
2023-02-20T08:58:58.033Z,14.42
2023-02-20T09:01:28.147Z,9.65
2023-02-20T09:06:28.120Z,6.23
2023-02-20T09:08:58.155Z,6.19
2023-02-20T09:11:28.157Z,5.06
2023-02-20T09:13:58.171Z,4.04
2023-02-20T09:16:28.322Z,4.26
2023-02-20T09:18:58.244Z,5.7
2023-02-20T09:21:28.240Z,6.73
2023-02-20T09:23:58.344Z,5.43
2023-02-20T09:26:28.286Z,4.95
2023-02-20T09:28:58.328Z,4.66
2023-02-20T09:31:28.453Z,4.23
2023-02-20T09:33:58.361Z,4.34
2023-02-20T09:36:28.368Z,5.5
2023-02-20T09:38:58.401Z,5.45
2023-02-20T09:41:28.426Z,5.86
2023-02-20T09:46:28.467Z,5.17
2023-02-20T09:48:58.501Z,4.84
2023-02-20T09:51:28.516Z,4.87
2023-02-20T09:53:58.547Z,5.22
2023-02-20T09:56:28.578Z,5.58
2023-02-20T09:58:58.583Z,5.68
2023-02-20T10:01:28.644Z,4.98
2023-02-20T10:03:58.679Z,6.11
2023-02-20T10:06:28.705Z,5.64
2023-02-20T10:08:58.686Z,5.58
2023-02-20T10:11:28.712Z,5.78
2023-02-20T10:13:58.730Z,6.6
2023-02-20T10:16:28.855Z,5.17
2023-02-20T10:18:58.800Z,5.66
2023-02-20T10:21:28.827Z,5.32
2023-02-20T10:26:28.865Z,5.19
2023-02-20T10:28:58.960Z,7.08
2023-02-20T10:31:28.971Z,6.74
2023-02-20T10:33:58.924Z,6.29
2023-02-20T10:36:28.947Z,5.64
2023-02-20T10:38:58.986Z,5.83
2023-02-20T10:41:28.991Z,6.26
2023-02-20T10:43:59.023Z,6.23
2023-02-20T10:46:36.851Z,6.16
2023-02-20T10:48:59.079Z,5.91
2023-02-20T10:51:29.102Z,5.93
2023-02-20T10:53:59.132Z,6.67
2023-02-20T10:56:29.155Z,5.85
2023-02-20T10:58:59.165Z,6.21
2023-02-20T11:01:29.271Z,8.17
2023-02-20T11:03:59.242Z,7.53
2023-02-20T11:06:29.234Z,6.07
2023-02-20T11:08:59.284Z,6.48
2023-02-20T11:11:29.274Z,7.03
2023-02-20T11:13:59.293Z,5.8
2023-02-20T11:16:29.333Z,7.71
2023-02-20T11:21:29.352Z,5.28
2023-02-20T11:23:59.392Z,5
2023-02-20T11:26:29.412Z,5.74
2023-02-20T11:28:59.429Z,5.32
2023-02-20T11:31:29.653Z,4.57
2023-02-20T11:36:29.520Z,5.54
2023-02-20T11:38:59.538Z,4.96
2023-02-20T11:44:01.566Z,3.91
2023-02-20T11:46:29.668Z,4.98
2023-02-20T11:53:59.688Z,6.25
2023-02-20T12:01:29.757Z,5.82
2023-02-20T12:03:59.786Z,6.25
2023-02-20T12:06:29.784Z,5.2
2023-02-20T12:11:29.850Z,7.92
2023-02-20T12:16:29.937Z,6.21
2023-02-20T12:18:59.908Z,7.17
2023-02-20T12:21:29.918Z,7.49
2023-02-20T12:23:59.948Z,7.76
2023-02-20T12:31:30.192Z,7.87
2023-02-20T12:36:30.070Z,7.52
2023-02-20T12:39:00.146Z,8.6
2023-02-20T12:41:30.129Z,8.65
2023-02-20T12:44:12.552Z,8.66
2023-02-20T12:46:30.220Z,8.49
2023-02-20T12:49:00.213Z,9.46
2023-02-20T12:51:30.199Z,10.87
2023-02-20T12:56:30.263Z,8.91
2023-02-20T12:59:07.306Z,9.1
2023-02-20T13:01:39.255Z,8.64
2023-02-20T13:09:00.400Z,9.57
2023-02-20T13:11:30.404Z,9.52
2023-02-20T13:14:00.440Z,9.65
2023-02-20T13:19:00.469Z,8.52
2023-02-20T13:24:00.527Z,9.9
2023-02-20T13:26:30.547Z,9.95
2023-02-20T13:29:00.582Z,10.81
2023-02-20T13:39:00.657Z,9.16
2023-02-20T13:49:00.804Z,9.03
2023-02-20T13:56:30.822Z,9.05
2023-02-20T14:01:30.922Z,9.69
2023-02-20T14:04:00.913Z,9.25
2023-02-20T14:06:30.922Z,9.32
2023-02-20T14:09:00.940Z,9.33
2023-02-20T14:16:31.131Z,8.63
2023-02-20T14:19:01.072Z,9.24
2023-02-20T14:21:31.055Z,7.51
2023-02-20T14:26:31.109Z,10.36
2023-02-20T14:29:01.148Z,9.22
2023-02-20T14:34:01.168Z,9.27
2023-02-20T14:36:31.183Z,8.08
2023-02-20T14:44:01.322Z,7.24
2023-02-20T14:51:31.338Z,7.41
2023-02-20T14:56:33.758Z,10.77
2023-02-20T14:59:01.413Z,9.13
2023-02-20T15:01:31.534Z,10.21
2023-02-20T15:04:01.463Z,11.43
2023-02-20T15:11:31.532Z,9.12
2023-02-20T15:14:01.558Z,9.94
2023-02-20T15:21:31.607Z,10.38
2023-02-20T15:29:01.710Z,10.03
2023-02-20T15:31:33.732Z,11.51
2023-02-20T15:34:01.748Z,10.89
2023-02-20T15:36:31.795Z,12.97
2023-02-20T15:39:01.802Z,11.57
2023-02-20T15:44:01.845Z,10.36
2023-02-20T15:46:31.897Z,9.02
2023-02-20T15:49:03.202Z,8.89
2023-02-20T16:04:02.036Z,8.03
2023-02-20T16:06:32.071Z,8.39
2023-02-20T16:09:02.085Z,9.19
2023-02-20T16:16:32.502Z,9.52
2023-02-20T16:19:02.195Z,8.36
2023-02-20T16:29:02.257Z,9.94
2023-02-20T16:31:32.382Z,9.74
2023-02-20T16:36:32.350Z,11.24
2023-02-20T16:41:32.481Z,13.19
2023-02-20T16:56:32.517Z,9.85
2023-02-20T16:59:02.543Z,10.21
2023-02-20T17:06:32.620Z,7.38
2023-02-20T17:11:32.665Z,8.66
2023-02-20T17:16:32.746Z,7.35
2023-02-20T17:19:02.732Z,8.08
2023-02-20T17:39:02.940Z,10.93
2023-02-20T17:54:03.060Z,11.57
2023-02-20T17:56:33.093Z,11.75
2023-02-20T18:04:03.260Z,11.37
2023-02-20T18:06:33.182Z,11.36
2023-02-20T18:09:03.195Z,9.69
2023-02-20T18:11:33.252Z,10.32
2023-02-20T18:14:03.256Z,10.45
2023-02-20T18:16:33.300Z,9.97
2023-02-20T18:19:03.310Z,12.19
2023-02-20T18:21:33.322Z,11.76
2023-02-20T18:26:33.391Z,9.62
2023-02-20T18:29:03.436Z,9.35
2023-02-20T18:31:33.504Z,12.59
2023-02-20T18:34:03.441Z,11.11
2023-02-20T18:36:33.465Z,12.46
2023-02-20T18:39:03.507Z,12.33
2023-02-20T18:41:33.509Z,13.22
2023-02-20T18:44:03.546Z,10.4
2023-02-20T18:46:33.575Z,9.84
2023-02-20T18:49:03.592Z,11.6
2023-02-20T18:51:33.625Z,11.55
2023-02-20T18:54:03.638Z,10.58
2023-02-20T18:56:33.663Z,10.06
2023-02-20T18:59:03.687Z,9.65
2023-02-20T19:01:34.222Z,10.75
2023-02-20T19:04:03.719Z,11
2023-02-20T19:06:33.791Z,11.49
2023-02-20T19:11:33.800Z,10.96
2023-02-20T19:14:03.811Z,10.97
2023-02-20T19:16:33.880Z,10.98
2023-02-20T19:19:03.854Z,11.4
2023-02-20T19:24:03.907Z,11.19
2023-02-20T19:26:33.977Z,10.72
2023-02-20T19:36:34.033Z,11.37
2023-02-20T19:39:04.068Z,10.56
2023-02-20T19:41:34.068Z,9.37
2023-02-20T19:44:04.101Z,8.6
2023-02-20T19:49:04.148Z,8.78
2023-02-20T19:51:34.167Z,9.15
2023-02-20T19:54:04.199Z,8.9
2023-02-20T19:56:34.231Z,8.04
2023-02-20T19:59:04.262Z,7.58
2023-02-20T20:01:34.332Z,8.91
2023-02-20T20:04:04.280Z,9.95
2023-02-20T20:06:34.314Z,10.46
2023-02-20T20:09:13.714Z,10.13
2023-02-20T20:11:34.373Z,11.5
2023-02-20T20:14:04.377Z,10.59
2023-02-20T20:16:34.438Z,10.55
2023-02-20T20:19:04.421Z,11.52
2023-02-20T20:21:34.465Z,11.61
2023-02-20T20:24:04.474Z,12.63
2023-02-20T20:26:34.490Z,13.38
2023-02-20T20:29:04.531Z,9.88
2023-02-20T20:31:34.683Z,11.38
2023-02-20T20:34:04.562Z,9.91
2023-02-20T20:36:34.602Z,10.82
2023-02-20T20:39:04.626Z,11.4
2023-02-20T20:41:44.338Z,10.46
2023-02-20T20:44:04.750Z,9.29
2023-02-20T20:54:07.254Z,11.62
2023-02-20T20:56:34.800Z,12.6
2023-02-20T20:59:04.800Z,11.42
2023-02-20T21:01:34.869Z,12.72
2023-02-20T21:04:04.875Z,11.08
2023-02-20T21:06:34.883Z,10.76
2023-02-20T21:09:04.912Z,12.58
2023-02-20T21:11:35.525Z,11.01
2023-02-20T21:14:04.958Z,11.66
2023-02-20T21:16:35.012Z,12.72
2023-02-20T21:19:05.023Z,14.11
2023-02-20T21:21:35.067Z,12.98
2023-02-20T21:24:05.039Z,12.5
2023-02-20T21:26:35.070Z,11.89
2023-02-20T21:29:05.101Z,13.92
2023-02-20T21:31:35.309Z,10.55
2023-02-20T21:34:05.126Z,12.05
2023-02-20T21:36:35.149Z,16.53
2023-02-20T21:39:05.191Z,15.86
2023-02-20T21:41:35.417Z,17.38
2023-02-20T21:46:35.302Z,17.72
2023-02-20T21:49:05.262Z,16.45
2023-02-20T21:51:35.302Z,16.32
2023-02-20T21:54:05.318Z,14.39
2023-02-20T21:59:06.399Z,15.48
2023-02-20T22:01:35.472Z,17.39
2023-02-20T22:04:05.427Z,16.66
2023-02-20T22:06:35.498Z,16.4
2023-02-20T22:09:05.469Z,14.21
2023-02-20T22:11:35.485Z,15.23
2023-02-20T22:14:05.512Z,14.46
2023-02-20T22:16:35.523Z,17.14
2023-02-20T22:19:05.567Z,18.01
2023-02-20T22:21:35.591Z,18.54
2023-02-20T22:24:05.624Z,16.39
2023-02-20T22:26:35.676Z,17.08
2023-02-20T22:29:05.654Z,16.45
2023-02-20T22:31:35.764Z,15.26
2023-02-20T22:34:05.700Z,14.08
2023-02-20T22:36:35.728Z,13.99
2023-02-20T22:39:05.755Z,15.52
2023-02-20T22:41:35.767Z,16.8
2023-02-20T22:44:05.799Z,17.34
2023-02-20T22:46:35.853Z,18.08
2023-02-20T22:49:05.864Z,17.48
2023-02-20T22:51:35.870Z,18.41
2023-02-20T22:54:05.900Z,19.59
2023-02-20T22:56:35.932Z,18.74
2023-02-20T22:59:05.970Z,20.06
2023-02-20T23:01:36.027Z,19.38
2023-02-20T23:04:05.976Z,16.26
2023-02-20T23:06:35.998Z,13.32
2023-02-20T23:14:06.082Z,15.63
2023-02-20T23:16:36.188Z,14.44
2023-02-20T23:19:06.126Z,12.45
2023-02-20T23:24:06.182Z,15.05
2023-02-20T23:26:36.233Z,15.68
2023-02-20T23:29:06.224Z,15.68
2023-02-20T23:31:36.381Z,15.37
2023-02-20T23:34:06.263Z,15.05
2023-02-20T23:36:36.285Z,15.28
2023-02-20T23:39:06.323Z,14.18
2023-02-20T23:41:36.332Z,13.3
2023-02-20T23:44:06.357Z,14.67
2023-02-20T23:46:36.383Z,13.14
2023-02-20T23:49:06.404Z,13.47
2023-02-20T23:51:36.433Z,12.76
2023-02-20T23:54:06.436Z,11.53
2023-02-20T23:56:36.482Z,12.04
2023-02-20T23:59:06.498Z,11.52
